createdAt,value
2018-05-18T00:00:56.801Z,59.60
2018-05-18T00:03:25.071Z,59.70
2018-05-18T00:05:53.333Z,60.10
2018-05-18T00:08:22.397Z,59.70
2018-05-18T00:10:50.676Z,59.60
2018-05-18T00:13:18.935Z,59.20
2018-05-18T00:15:47.228Z,58.60
2018-05-18T00:18:15.475Z,58.40
2018-05-18T00:20:43.755Z,58.40
2018-05-18T00:23:12.015Z,58.10
2018-05-18T00:25:40.292Z,57.90
2018-05-18T00:28:08.566Z,58.60
2018-05-18T00:30:36.883Z,59.10
2018-05-18T00:33:05.173Z,59.90
2018-05-18T00:35:33.438Z,58.80
2018-05-18T00:38:01.714Z,58.80
2018-05-18T00:40:29.981Z,59.20
2018-05-18T00:42:58.273Z,59.40
2018-05-18T00:45:26.538Z,59.70
2018-05-18T00:47:54.804Z,59.70
2018-05-18T00:50:23.092Z,59.90
2018-05-18T00:52:51.812Z,60.00
2018-05-18T00:55:32.579Z,59.60
2018-05-18T00:58:00.869Z,59.60
2018-05-18T01:00:29.134Z,60.00
2018-05-18T01:02:57.412Z,60.20
2018-05-18T01:05:25.676Z,60.30
2018-05-18T01:07:53.961Z,60.10
2018-05-18T01:10:22.221Z,60.30
2018-05-18T01:12:51.255Z,60.80
2018-05-18T01:15:19.511Z,60.80
2018-05-18T01:17:47.797Z,60.40
2018-05-18T01:20:16.071Z,59.40
2018-05-18T01:22:44.356Z,59.50
2018-05-18T01:25:12.620Z,59.60
2018-05-18T01:27:40.898Z,59.10
2018-05-18T01:30:09.157Z,59.10
2018-05-18T01:32:37.436Z,58.80
2018-05-18T01:35:05.716Z,58.50
2018-05-18T01:37:33.977Z,58.00
2018-05-18T01:40:02.234Z,58.40
2018-05-18T01:42:31.271Z,58.50
2018-05-18T01:44:59.534Z,58.30
2018-05-18T01:47:27.794Z,57.90
2018-05-18T01:49:56.040Z,58.50
2018-05-18T01:52:25.083Z,58.00
2018-05-18T01:54:53.360Z,57.60
2018-05-18T01:57:21.608Z,57.60
2018-05-18T01:59:49.879Z,57.80
2018-05-18T02:02:18.957Z,57.40
2018-05-18T02:04:47.989Z,56.90
2018-05-18T02:07:16.243Z,56.80
2018-05-18T02:09:44.521Z,56.60
2018-05-18T02:12:13.558Z,56.80
2018-05-18T02:14:41.830Z,56.80
2018-05-18T02:17:10.087Z,57.10
2018-05-18T02:19:38.416Z,57.20
2018-05-18T02:22:06.678Z,56.80
2018-05-18T02:24:34.967Z,57.10
2018-05-18T02:27:03.978Z,57.00
2018-05-18T02:29:32.247Z,57.00
2018-05-18T02:32:01.267Z,56.50
2018-05-18T02:34:29.564Z,56.50
2018-05-18T02:36:57.796Z,56.50
2018-05-18T02:39:26.064Z,56.30
2018-05-18T02:41:54.345Z,56.10
2018-05-18T02:44:23.387Z,56.40
2018-05-18T02:46:51.672Z,56.40
2018-05-18T02:49:19.908Z,56.10
2018-05-18T02:51:48.167Z,56.00
2018-05-18T02:54:16.433Z,56.00
2018-05-18T02:56:45.477Z,56.40
2018-05-18T02:59:13.724Z,56.30
2018-05-18T03:01:41.992Z,56.70
2018-05-18T03:04:10.273Z,56.80
2018-05-18T03:06:38.522Z,56.50
2018-05-18T03:09:07.550Z,57.10
2018-05-18T03:11:35.815Z,57.00
2018-05-18T03:14:04.068Z,57.00
2018-05-18T03:16:32.348Z,57.20
2018-05-18T03:19:01.365Z,57.50
2018-05-18T03:21:29.635Z,57.40
2018-05-18T03:23:57.891Z,57.70
2018-05-18T03:26:26.911Z,57.70
2018-05-18T03:28:55.155Z,57.70
2018-05-18T03:31:24.204Z,57.80
2018-05-18T03:33:52.455Z,57.70
2018-05-18T03:36:20.719Z,57.80
2018-05-18T03:38:48.974Z,56.90
2018-05-18T03:41:18.018Z,57.30
2018-05-18T03:43:46.271Z,57.20
2018-05-18T03:46:14.539Z,57.20
2018-05-18T03:48:42.791Z,57.60
2018-05-18T03:51:11.066Z,57.20
2018-05-18T03:53:40.087Z,57.20
2018-05-18T03:56:08.356Z,57.20
2018-05-18T03:58:36.657Z,57.10
2018-05-18T04:01:05.108Z,56.80
2018-05-18T04:03:45.115Z,56.60
2018-05-18T04:06:25.263Z,56.20
2018-05-18T04:08:53.540Z,56.20
2018-05-18T04:11:21.779Z,56.60
2018-05-18T04:13:50.022Z,56.50
2018-05-18T04:16:18.291Z,56.60
2018-05-18T04:18:47.324Z,56.80
2018-05-18T04:21:15.587Z,56.70
2018-05-18T04:23:43.842Z,57.10
2018-05-18T04:26:12.104Z,57.00
2018-05-18T04:28:41.128Z,58.40
2018-05-18T04:31:09.395Z,58.30
2018-05-18T04:33:37.644Z,58.20
2018-05-18T04:36:06.663Z,57.80
2018-05-18T04:38:34.918Z,57.70
2018-05-18T04:41:03.953Z,58.70
2018-05-18T04:43:32.215Z,58.70
2018-05-18T04:46:00.468Z,58.70
2018-05-18T04:48:28.747Z,58.70
2018-05-18T04:50:57.057Z,58.60
2018-05-18T04:53:25.295Z,58.90
2018-05-18T04:55:53.554Z,59.30
2018-05-18T04:58:22.623Z,59.60
2018-05-18T05:00:50.879Z,59.50
2018-05-18T05:03:19.155Z,59.90
2018-05-18T05:05:47.427Z,59.50
2018-05-18T05:08:15.675Z,59.90
2018-05-18T05:10:43.955Z,60.90
2018-05-18T05:13:12.231Z,60.80
2018-05-18T05:15:40.488Z,60.40
2018-05-18T05:18:08.763Z,60.70
2018-05-18T05:20:37.020Z,60.90
2018-05-18T05:23:06.072Z,60.90
2018-05-18T05:25:34.319Z,60.90
2018-05-18T05:28:02.592Z,60.80
2018-05-18T05:30:30.929Z,60.80
2018-05-18T05:32:59.132Z,61.40
2018-05-18T05:35:28.146Z,61.30
2018-05-18T05:37:56.415Z,61.30
2018-05-18T05:40:24.671Z,61.30
2018-05-18T05:42:52.934Z,61.60
2018-05-18T05:45:21.975Z,61.60
2018-05-18T05:47:50.235Z,61.60
2018-05-18T05:50:18.498Z,61.80
2018-05-18T05:52:46.786Z,61.90
2018-05-18T05:55:15.057Z,61.40
2018-05-18T05:57:43.311Z,61.30
2018-05-18T06:00:12.371Z,61.60
2018-05-18T06:02:40.678Z,61.50
2018-05-18T06:05:09.691Z,61.20
2018-05-18T06:07:38.000Z,61.10
2018-05-18T06:10:06.249Z,61.10
2018-05-18T06:12:34.517Z,60.30
2018-05-18T06:15:02.817Z,61.10
2018-05-18T06:17:31.099Z,60.40
2018-05-18T06:19:59.354Z,60.30
2018-05-18T06:22:27.639Z,61.20
2018-05-18T06:24:55.927Z,61.60
2018-05-18T06:27:24.234Z,60.90
2018-05-18T06:29:52.501Z,60.80
2018-05-18T06:32:20.757Z,61.20
2018-05-18T06:34:49.052Z,60.30
2018-05-18T06:37:17.325Z,60.70
2018-05-18T06:39:45.646Z,60.10
2018-05-18T06:42:14.898Z,61.00
2018-05-18T06:44:43.164Z,60.60
2018-05-18T06:47:11.494Z,61.00
2018-05-18T06:49:39.763Z,59.30
2018-05-18T06:52:08.044Z,58.20
2018-05-18T06:54:36.305Z,59.50
2018-05-18T06:57:05.334Z,59.10
2018-05-18T06:59:33.614Z,59.10
2018-05-18T07:02:01.894Z,58.30
2018-05-18T07:04:30.155Z,57.10
2018-05-18T07:06:58.427Z,58.10
2018-05-18T07:09:26.698Z,57.30
2018-05-18T07:11:54.983Z,56.80
2018-05-18T07:14:23.239Z,57.70
2018-05-18T07:16:51.518Z,57.10
2018-05-18T07:19:19.781Z,56.60
2018-05-18T07:21:48.076Z,56.40
2018-05-18T07:24:16.314Z,55.90
2018-05-18T07:26:45.339Z,55.90
2018-05-18T07:29:13.615Z,55.80
2018-05-18T07:31:41.874Z,54.80
2018-05-18T07:34:10.156Z,53.60
2018-05-18T07:36:38.419Z,55.30
2018-05-18T07:39:06.671Z,53.90
2018-05-18T07:42:00.085Z,54.10
2018-05-18T07:44:29.126Z,53.10
2018-05-18T07:46:58.152Z,51.50
2018-05-18T07:49:26.434Z,52.00
2018-05-18T07:51:55.461Z,51.90
2018-05-18T07:54:23.747Z,51.80
2018-05-18T07:56:52.004Z,53.10
2018-05-18T07:59:20.283Z,53.80
2018-05-18T08:01:48.531Z,53.50
2018-05-18T08:04:16.806Z,52.40
2018-05-18T08:06:45.063Z,52.00
2018-05-18T08:09:13.320Z,53.00
2018-05-18T08:11:42.359Z,52.60
2018-05-18T08:14:10.619Z,52.60
2018-05-18T08:16:38.887Z,50.80
2018-05-18T08:19:07.140Z,51.80
2018-05-18T08:21:36.227Z,49.60
2018-05-18T08:24:04.432Z,49.70
2018-05-18T08:26:32.715Z,47.10
2018-05-18T08:29:12.803Z,49.70
2018-05-18T08:31:41.068Z,49.90
2018-05-18T08:34:09.317Z,49.70
2018-05-18T08:36:37.599Z,49.90
2018-05-18T08:39:05.876Z,49.90
2018-05-18T08:41:34.145Z,50.30
2018-05-18T08:44:02.403Z,49.30
2018-05-18T08:46:30.661Z,48.80
2018-05-18T08:48:59.697Z,48.40
2018-05-18T08:51:27.954Z,48.40
2018-05-18T08:53:56.226Z,49.80
2018-05-18T08:56:24.489Z,49.20
2018-05-18T08:58:53.515Z,48.90
2018-05-18T09:01:21.782Z,48.80
2018-05-18T09:03:50.044Z,48.50
2018-05-18T09:06:18.317Z,49.20
2018-05-18T09:08:46.589Z,48.80
2018-05-18T09:11:14.864Z,48.90
2018-05-18T09:13:43.119Z,48.10
2018-05-18T09:16:12.159Z,47.80
2018-05-18T09:18:40.427Z,47.70
2018-05-18T09:21:08.706Z,50.40
2018-05-18T09:23:36.968Z,49.20
2018-05-18T09:26:05.243Z,49.70
2018-05-18T09:28:33.497Z,46.60
2018-05-18T09:31:02.520Z,47.70
2018-05-18T09:33:30.789Z,47.70
2018-05-18T09:36:02.462Z,47.20
2018-05-18T09:38:30.748Z,48.60
2018-05-18T09:40:59.579Z,48.60
2018-05-18T09:43:28.620Z,51.80
2018-05-18T09:45:56.866Z,51.70
2018-05-18T09:48:25.143Z,48.60
2018-05-18T09:50:53.416Z,46.70
2018-05-18T09:53:21.687Z,47.10
2018-05-18T09:55:50.683Z,45.80
2018-05-18T09:58:18.967Z,45.70
2018-05-18T10:00:47.231Z,46.00
2018-05-18T10:03:16.243Z,47.10
2018-05-18T10:05:44.516Z,47.90
2018-05-18T10:08:12.772Z,45.00
2018-05-18T10:10:41.823Z,47.00
2018-05-18T10:13:10.092Z,47.00
2018-05-18T10:15:38.345Z,47.30
2018-05-18T10:18:06.616Z,48.40
2018-05-18T10:20:35.657Z,47.50
2018-05-18T10:23:03.931Z,47.60
2018-05-18T10:25:32.207Z,50.30
2018-05-18T10:28:00.505Z,48.40
2018-05-18T10:30:31.372Z,46.00
2018-05-18T10:32:59.647Z,45.80
2018-05-18T10:35:29.697Z,45.20
2018-05-18T10:38:02.773Z,43.50
2018-05-18T10:40:32.079Z,45.80
2018-05-18T10:43:00.428Z,47.00
2018-05-18T10:45:29.682Z,45.00
2018-05-18T10:47:58.016Z,45.90
2018-05-18T10:50:26.308Z,42.80
2018-05-18T10:52:54.569Z,48.40
2018-05-18T10:55:23.895Z,44.50
2018-05-18T10:57:52.195Z,46.80
2018-05-18T11:00:21.861Z,45.10
2018-05-18T11:02:50.703Z,45.10
2018-05-18T11:05:20.025Z,45.10
2018-05-18T11:07:48.222Z,44.80
2018-05-18T11:10:16.532Z,42.80
2018-05-18T11:12:44.804Z,43.90
2018-05-18T11:15:14.644Z,41.10
2018-05-18T11:17:42.936Z,41.10
2018-05-18T11:20:11.268Z,42.10
2018-05-18T11:22:40.222Z,44.00
2018-05-18T11:25:08.487Z,43.90
2018-05-18T11:27:36.846Z,44.10
2018-05-18T11:30:05.107Z,42.00
2018-05-18T11:32:33.409Z,42.90
2018-05-18T11:35:03.322Z,41.70
2018-05-18T11:37:31.840Z,39.30
2018-05-18T11:40:00.117Z,41.20
2018-05-18T11:42:28.387Z,44.10
2018-05-18T11:44:58.013Z,43.60
2018-05-18T11:47:27.090Z,45.40
2018-05-18T11:49:55.370Z,45.30
2018-05-18T11:52:23.731Z,43.40
2018-05-18T11:54:52.026Z,42.40
2018-05-18T11:57:20.297Z,43.60
2018-05-18T11:59:48.592Z,43.60
2018-05-18T12:02:16.906Z,39.40
2018-05-18T12:04:45.189Z,41.10
2018-05-18T12:07:13.448Z,42.60
2018-05-18T12:09:41.755Z,40.60
2018-05-18T12:12:10.037Z,39.90
2018-05-18T12:14:38.303Z,43.00
2018-05-18T12:17:06.629Z,42.60
2018-05-18T12:19:35.651Z,42.10
2018-05-18T12:22:03.942Z,42.20
2018-05-18T12:24:32.243Z,41.00
2018-05-18T12:27:00.511Z,44.40
2018-05-18T12:29:28.789Z,42.80
2018-05-18T12:31:57.042Z,44.30
2018-05-18T12:34:25.324Z,41.30
2018-05-18T12:36:53.591Z,42.20
2018-05-18T12:39:21.877Z,41.80
2018-05-18T12:41:50.291Z,41.30
2018-05-18T12:44:18.832Z,38.80
2018-05-18T12:46:47.069Z,39.00
2018-05-18T12:49:15.358Z,38.60
2018-05-18T12:51:43.632Z,39.80
2018-05-18T12:54:11.898Z,40.30
2018-05-18T12:56:42.356Z,42.50
2018-05-18T12:59:10.618Z,41.60
2018-05-18T13:01:38.880Z,39.60
2018-05-18T13:04:07.175Z,37.20
2018-05-18T13:06:35.452Z,41.40
2018-05-18T13:09:03.712Z,40.50
2018-05-18T13:11:32.312Z,41.50
2018-05-18T13:14:00.585Z,39.20
2018-05-18T13:16:28.844Z,41.60
2018-05-18T13:18:57.118Z,38.30
2018-05-18T13:21:25.373Z,39.70
2018-05-18T13:23:54.412Z,41.50
2018-05-18T13:26:22.672Z,41.50
2018-05-18T13:28:50.952Z,38.70
2018-05-18T13:31:19.231Z,38.30
2018-05-18T13:33:47.822Z,38.70
2018-05-18T13:36:16.075Z,35.40
2018-05-18T13:38:44.488Z,35.20
2018-05-18T13:41:14.499Z,34.90
2018-05-18T13:43:42.780Z,34.80
2018-05-18T13:46:11.028Z,34.00
2018-05-18T13:48:39.310Z,36.70
2018-05-18T13:51:07.560Z,31.90
2018-05-18T13:53:35.803Z,35.10
2018-05-18T13:56:04.979Z,36.30
2018-05-18T13:58:33.236Z,36.40
2018-05-18T14:01:01.523Z,32.00
2018-05-18T14:03:29.794Z,32.00
2018-05-18T14:05:58.072Z,34.10
2018-05-18T14:08:26.355Z,30.90
2018-05-18T14:10:54.603Z,34.70
2018-05-18T14:13:22.851Z,37.30
2018-05-18T14:15:51.124Z,37.00
2018-05-18T14:18:19.380Z,36.60
2018-05-18T14:20:48.516Z,31.10
2018-05-18T14:23:16.729Z,31.50
2018-05-18T14:25:44.961Z,30.80
2018-05-18T14:28:13.229Z,32.00
2018-05-18T14:30:41.482Z,32.20
2018-05-18T14:33:10.499Z,31.70
2018-05-18T14:35:38.770Z,31.50
2018-05-18T14:38:07.111Z,33.70
2018-05-18T14:40:35.319Z,32.20
2018-05-18T14:43:03.587Z,33.00
2018-05-18T14:45:32.601Z,33.70
2018-05-18T14:48:01.643Z,31.30
2018-05-18T14:50:29.918Z,31.30
2018-05-18T14:52:58.760Z,33.40
2018-05-18T14:55:27.049Z,32.80
2018-05-18T14:57:55.287Z,30.90
2018-05-18T15:00:23.710Z,31.50
2018-05-18T15:02:51.962Z,29.50
2018-05-18T15:05:20.260Z,30.50
2018-05-18T15:07:48.664Z,31.70
2018-05-18T15:10:18.439Z,33.30
2018-05-18T15:12:46.714Z,33.30
2018-05-18T15:15:15.284Z,32.90
2018-05-18T15:17:43.532Z,30.60
2018-05-18T15:20:11.809Z,30.60
2018-05-18T15:22:40.085Z,31.50
2018-05-18T15:25:09.106Z,31.20
2018-05-18T15:27:37.770Z,31.30
2018-05-18T15:30:06.041Z,30.00
2018-05-18T15:32:34.284Z,33.10
2018-05-18T15:35:03.836Z,30.30
2018-05-18T15:37:32.092Z,30.90
2018-05-18T15:40:00.343Z,29.00
2018-05-18T15:42:29.390Z,29.70
2018-05-18T15:44:57.643Z,29.60
2018-05-18T15:47:25.916Z,29.40
2018-05-18T15:49:54.163Z,27.10
2018-05-18T15:52:23.187Z,30.50
2018-05-18T15:54:51.536Z,30.40
2018-05-18T15:57:19.766Z,30.40
2018-05-18T15:59:48.788Z,29.50
2018-05-18T16:02:17.820Z,30.30
2018-05-18T16:04:46.086Z,29.60
2018-05-18T16:07:14.391Z,29.80
2018-05-18T16:09:42.695Z,30.00
2018-05-18T16:12:10.960Z,29.90
2018-05-18T16:14:39.211Z,29.80
2018-05-18T16:17:07.565Z,33.30
2018-05-18T16:19:35.832Z,30.90
2018-05-18T16:22:04.103Z,29.70
2018-05-18T16:24:33.126Z,30.00
2018-05-18T16:27:01.416Z,29.90
2018-05-18T16:29:29.674Z,30.50
2018-05-18T16:31:57.926Z,31.30
2018-05-18T16:34:26.338Z,30.70
2018-05-18T16:36:54.592Z,29.50
2018-05-18T16:39:22.850Z,29.80
2018-05-18T16:41:51.132Z,30.70
2018-05-18T16:44:19.500Z,32.10
2018-05-18T16:46:48.524Z,33.70
2018-05-18T16:49:16.799Z,33.60
2018-05-18T16:51:45.051Z,33.40
2018-05-18T16:54:13.313Z,33.50
2018-05-18T16:56:41.582Z,34.40
2018-05-18T16:59:10.603Z,34.80
2018-05-18T17:01:38.884Z,34.70
2018-05-18T17:04:07.157Z,35.50
2018-05-18T17:06:35.475Z,36.80
2018-05-18T17:09:05.256Z,37.20
2018-05-18T17:11:33.520Z,37.00
2018-05-18T17:14:01.981Z,36.90
2018-05-18T17:16:31.089Z,38.40
2018-05-18T17:18:59.354Z,38.40
2018-05-18T17:21:27.675Z,38.80
2018-05-18T17:23:55.988Z,39.50
2018-05-18T17:26:25.052Z,39.50
2018-05-18T17:28:53.303Z,39.40
2018-05-18T17:31:21.585Z,39.40
2018-05-18T17:33:49.847Z,39.90
2018-05-18T17:36:18.108Z,40.20
2018-05-18T17:38:46.411Z,41.00
2018-05-18T17:41:14.691Z,41.30
2018-05-18T17:43:42.951Z,41.60
2018-05-18T17:46:11.239Z,41.50
2018-05-18T17:48:41.146Z,41.40
2018-05-18T17:51:09.573Z,41.40
2018-05-18T17:53:38.611Z,42.10
2018-05-18T17:56:06.874Z,42.00
2018-05-18T17:58:35.227Z,43.00
2018-05-18T18:01:04.286Z,41.60
2018-05-18T18:03:32.571Z,41.50
2018-05-18T18:06:00.834Z,42.80
2018-05-18T18:08:29.102Z,42.80
2018-05-18T18:10:57.448Z,42.60
2018-05-18T18:13:25.713Z,42.80
2018-05-18T18:15:54.753Z,43.50
2018-05-18T18:18:24.542Z,44.90
2018-05-18T18:20:52.838Z,44.40
2018-05-18T18:23:21.236Z,44.20
2018-05-18T18:25:49.523Z,43.80
2018-05-18T18:28:17.785Z,44.70
2018-05-18T18:30:46.046Z,44.40
2018-05-18T18:33:14.360Z,44.30
2018-05-18T18:35:43.451Z,44.60
2018-05-18T18:38:12.475Z,44.80
2018-05-18T18:40:40.775Z,44.80
2018-05-18T18:43:09.036Z,44.80
2018-05-18T18:45:37.325Z,45.70
2018-05-18T18:48:05.589Z,45.80
2018-05-18T18:50:33.887Z,45.10
2018-05-18T18:53:02.146Z,45.80
2018-05-18T18:55:30.443Z,46.20
2018-05-18T18:57:58.984Z,45.90
2018-05-18T19:00:27.251Z,45.70
2018-05-18T19:02:55.536Z,46.50
2018-05-18T19:05:23.955Z,46.60
2018-05-18T19:07:52.245Z,46.00
2018-05-18T19:10:21.277Z,46.30
2018-05-18T19:12:49.554Z,46.20
2018-05-18T19:15:17.896Z,47.30
2018-05-18T19:17:46.108Z,46.00
2018-05-18T19:20:15.292Z,46.60
2018-05-18T19:22:43.551Z,47.40
2018-05-18T19:25:12.629Z,47.20
2018-05-18T19:27:40.912Z,47.20
2018-05-18T19:30:10.005Z,48.00
2018-05-18T19:32:38.295Z,47.90
2018-05-18T19:35:07.343Z,48.40
2018-05-18T19:37:35.600Z,48.40
2018-05-18T19:40:03.868Z,48.50
2018-05-18T19:42:32.205Z,48.50
2018-05-18T19:45:01.236Z,49.20
2018-05-18T19:47:29.481Z,49.10
2018-05-18T19:49:58.566Z,48.70
2018-05-18T19:52:26.767Z,48.70
2018-05-18T19:54:55.020Z,49.20
2018-05-18T19:57:24.112Z,49.50
2018-05-18T19:59:53.128Z,49.30
2018-05-18T20:02:21.393Z,49.30
2018-05-18T20:04:49.672Z,49.10
2018-05-18T20:07:17.955Z,48.70
2018-05-18T20:09:46.434Z,49.00
2018-05-18T20:12:14.748Z,48.90
2018-05-18T20:14:42.991Z,47.80
2018-05-18T20:17:11.273Z,48.30
2018-05-18T20:19:39.588Z,48.10
2018-05-18T20:22:07.814Z,48.40
2018-05-18T20:24:36.079Z,47.80
2018-05-18T20:27:04.502Z,47.70
2018-05-18T20:29:32.805Z,48.00
2018-05-18T20:32:01.837Z,47.60
2018-05-18T20:34:30.359Z,47.60
2018-05-18T20:36:58.611Z,48.10
2018-05-18T20:39:26.863Z,47.60
2018-05-18T20:41:55.276Z,47.80
2018-05-18T20:44:23.788Z,47.70
2018-05-18T20:46:52.828Z,47.60
2018-05-18T20:49:21.094Z,47.50
2018-05-18T20:51:49.379Z,47.50
2018-05-18T20:54:17.617Z,47.50
2018-05-18T20:56:45.931Z,47.50
2018-05-18T20:59:15.201Z,47.50
2018-05-18T21:01:43.799Z,48.30
2018-05-18T21:04:12.043Z,48.30
2018-05-18T21:06:41.087Z,49.10
2018-05-18T21:09:09.353Z,49.10
2018-05-18T21:11:37.598Z,49.20
2018-05-18T21:14:06.624Z,51.20
2018-05-18T21:16:34.897Z,51.20
2018-05-18T21:19:03.165Z,52.10
2018-05-18T21:21:31.427Z,52.70
2018-05-18T21:23:59.706Z,52.50
2018-05-18T21:26:27.990Z,53.20
2018-05-18T21:28:56.250Z,52.40
2018-05-18T21:31:24.522Z,52.30
2018-05-18T21:33:52.788Z,52.00
2018-05-18T21:36:21.047Z,52.50
2018-05-18T21:38:50.062Z,52.40
2018-05-18T21:41:18.330Z,52.40
2018-05-18T21:43:47.339Z,54.40
2018-05-18T21:46:15.604Z,54.40
2018-05-18T21:48:43.868Z,54.80
2018-05-18T21:51:12.886Z,54.70
2018-05-18T21:53:41.136Z,54.60
2018-05-18T21:56:10.160Z,53.80
2018-05-18T21:58:38.519Z,53.80
2018-05-18T22:01:06.768Z,53.50
2018-05-18T22:03:34.990Z,53.30
2018-05-18T22:06:03.280Z,52.80
2018-05-18T22:08:31.819Z,52.50
2018-05-18T22:11:00.432Z,52.90
2018-05-18T22:13:28.683Z,53.20
2018-05-18T22:15:56.931Z,53.50
2018-05-18T22:18:25.971Z,54.90
2018-05-18T22:20:54.230Z,54.80
2018-05-18T22:23:22.495Z,55.40
2018-05-18T22:25:50.750Z,55.30
2018-05-18T22:28:19.781Z,53.90
2018-05-18T22:30:48.033Z,54.50
2018-05-18T22:33:17.156Z,53.80
2018-05-18T22:35:45.398Z,53.70
2018-05-18T22:38:13.694Z,53.70
2018-05-18T22:40:41.969Z,53.70
2018-05-18T22:43:10.232Z,54.10
2018-05-18T22:45:38.482Z,55.10
2018-05-18T22:48:07.542Z,55.50
2018-05-18T22:50:35.825Z,55.00
2018-05-18T22:53:04.075Z,55.10
2018-05-18T22:55:32.339Z,54.70
2018-05-18T22:58:00.597Z,54.30
2018-05-18T23:00:29.772Z,54.60
2018-05-18T23:02:58.066Z,54.50
2018-05-18T23:05:26.263Z,54.40
2018-05-18T23:07:54.551Z,54.30
2018-05-18T23:10:22.814Z,54.20
2018-05-18T23:12:51.080Z,53.90
2018-05-18T23:15:19.346Z,54.10
2018-05-18T23:17:48.365Z,54.90
2018-05-18T23:20:16.623Z,54.90
2018-05-18T23:22:44.879Z,55.50
2018-05-18T23:25:13.913Z,54.90
2018-05-18T23:27:42.195Z,54.90
2018-05-18T23:30:10.453Z,55.40
2018-05-18T23:32:39.032Z,55.90
2018-05-18T23:35:07.276Z,55.80
2018-05-18T23:37:36.303Z,55.30
2018-05-18T23:40:04.572Z,55.20
2018-05-18T23:42:32.827Z,54.90
2018-05-18T23:45:01.088Z,54.90
2018-05-18T23:47:30.120Z,55.00
2018-05-18T23:49:58.384Z,54.80
2018-05-18T23:52:26.964Z,54.70
2018-05-18T23:54:55.237Z,54.40
2018-05-18T23:57:23.519Z,54.30
2018-05-18T23:59:51.802Z,54.80
